sensor_id;sensor_type;location;lat;lon;timestamp;P1;durP1;ratioP1;P2;durP2;ratioP2
53263;SDS011;39153;52.680;6.172;2023-06-22T00:00:49;22.60;;;14.68;;
53263;SDS011;39153;52.680;6.172;2023-06-22T00:03:19;18.58;;;15.45;;
53263;SDS011;39153;52.680;6.172;2023-06-22T00:05:47;19.63;;;15.10;;
53263;SDS011;39153;52.680;6.172;2023-06-22T00:08:13;21.25;;;15.35;;
53263;SDS011;39153;52.680;6.172;2023-06-22T00:10:39;20.95;;;15.60;;
53263;SDS011;39153;52.680;6.172;2023-06-22T00:13:05;21.00;;;15.65;;
53263;SDS011;39153;52.680;6.172;2023-06-22T00:15:32;18.45;;;16.02;;
53263;SDS011;39153;52.680;6.172;2023-06-22T00:17:58;21.08;;;17.85;;
53263;SDS011;39153;52.680;6.172;2023-06-22T00:20:24;19.92;;;17.20;;
53263;SDS011;39153;52.680;6.172;2023-06-22T00:22:53;18.83;;;16.80;;
53263;SDS011;39153;52.680;6.172;2023-06-22T00:25:20;21.08;;;17.45;;
53263;SDS011;39153;52.680;6.172;2023-06-22T00:27:46;23.98;;;19.00;;
53263;SDS011;39153;52.680;6.172;2023-06-22T00:30:11;21.10;;;17.30;;
53263;SDS011;39153;52.680;6.172;2023-06-22T00:32:37;21.13;;;18.92;;
53263;SDS011;39153;52.680;6.172;2023-06-22T00:35:03;23.85;;;19.48;;
53263;SDS011;39153;52.680;6.172;2023-06-22T00:37:30;20.52;;;18.23;;
53263;SDS011;39153;52.680;6.172;2023-06-22T00:39:56;23.52;;;20.13;;
53263;SDS011;39153;52.680;6.172;2023-06-22T00:42:22;25.50;;;20.40;;
53263;SDS011;39153;52.680;6.172;2023-06-22T00:44:48;22.30;;;19.30;;
53263;SDS011;39153;52.680;6.172;2023-06-22T00:47:13;25.85;;;21.25;;
53263;SDS011;39153;52.680;6.172;2023-06-22T00:49:42;23.27;;;20.77;;
53263;SDS011;39153;52.680;6.172;2023-06-22T00:52:08;25.90;;;22.90;;
53263;SDS011;39153;52.680;6.172;2023-06-22T00:54:41;27.45;;;21.83;;
53263;SDS011;39153;52.680;6.172;2023-06-22T00:57:11;28.70;;;22.80;;
53263;SDS011;39153;52.680;6.172;2023-06-22T00:59:42;26.60;;;22.88;;
53263;SDS011;39153;52.680;6.172;2023-06-22T01:02:08;29.63;;;24.13;;
53263;SDS011;39153;52.680;6.172;2023-06-22T01:04:35;28.45;;;24.38;;
53263;SDS011;39153;52.680;6.172;2023-06-22T01:07:13;30.42;;;24.15;;
53263;SDS011;39153;52.680;6.172;2023-06-22T01:12:42;28.15;;;23.60;;
53263;SDS011;39153;52.680;6.172;2023-06-22T01:15:36;26.73;;;22.95;;
53263;SDS011;39153;52.680;6.172;2023-06-22T01:18:30;30.05;;;24.95;;
53263;SDS011;39153;52.680;6.172;2023-06-22T01:21:01;29.92;;;25.08;;
53263;SDS011;39153;52.680;6.172;2023-06-22T01:23:37;30.98;;;25.33;;
53263;SDS011;39153;52.680;6.172;2023-06-22T01:26:57;29.08;;;25.30;;
53263;SDS011;39153;52.680;6.172;2023-06-22T01:29:10;28.65;;;24.13;;
53263;SDS011;39153;52.680;6.172;2023-06-22T01:31:38;28.27;;;24.08;;
53263;SDS011;39153;52.680;6.172;2023-06-22T01:34:06;29.23;;;24.20;;
53263;SDS011;39153;52.680;6.172;2023-06-22T01:36:33;26.55;;;23.65;;
53263;SDS011;39153;52.680;6.172;2023-06-22T01:39:00;30.67;;;25.52;;
53263;SDS011;39153;52.680;6.172;2023-06-22T01:41:29;28.95;;;23.63;;
53263;SDS011;39153;52.680;6.172;2023-06-22T01:43:56;30.77;;;25.23;;
53263;SDS011;39153;52.680;6.172;2023-06-22T01:46:23;29.48;;;25.33;;
53263;SDS011;39153;52.680;6.172;2023-06-22T01:48:49;29.75;;;23.65;;
53263;SDS011;39153;52.680;6.172;2023-06-22T01:51:15;32.00;;;24.75;;
53263;SDS011;39153;52.680;6.172;2023-06-22T01:53:41;30.42;;;26.80;;
53263;SDS011;39153;52.680;6.172;2023-06-22T01:56:07;28.15;;;23.73;;
53263;SDS011;39153;52.680;6.172;2023-06-22T01:58:34;28.58;;;25.45;;
53263;SDS011;39153;52.680;6.172;2023-06-22T02:03:35;30.60;;;26.23;;
53263;SDS011;39153;52.680;6.172;2023-06-22T02:06:06;31.00;;;26.92;;
53263;SDS011;39153;52.680;6.172;2023-06-22T02:08:41;31.55;;;26.42;;
53263;SDS011;39153;52.680;6.172;2023-06-22T02:11:17;35.60;;;28.85;;
53263;SDS011;39153;52.680;6.172;2023-06-22T02:13:45;31.15;;;26.63;;
53263;SDS011;39153;52.680;6.172;2023-06-22T02:16:12;33.30;;;28.80;;
53263;SDS011;39153;52.680;6.172;2023-06-22T02:18:38;31.40;;;27.70;;
53263;SDS011;39153;52.680;6.172;2023-06-22T02:21:05;33.00;;;28.08;;
53263;SDS011;39153;52.680;6.172;2023-06-22T02:23:31;30.90;;;27.63;;
53263;SDS011;39153;52.680;6.172;2023-06-22T02:26:01;30.75;;;26.77;;
53263;SDS011;39153;52.680;6.172;2023-06-22T02:28:27;35.78;;;29.80;;
53263;SDS011;39153;52.680;6.172;2023-06-22T02:30:53;31.02;;;27.67;;
53263;SDS011;39153;52.680;6.172;2023-06-22T02:33:18;33.08;;;27.98;;
53263;SDS011;39153;52.680;6.172;2023-06-22T02:35:44;35.20;;;29.42;;
53263;SDS011;39153;52.680;6.172;2023-06-22T02:38:12;32.30;;;28.90;;
53263;SDS011;39153;52.680;6.172;2023-06-22T02:40:39;33.38;;;29.77;;
53263;SDS011;39153;52.680;6.172;2023-06-22T02:43:05;33.00;;;29.15;;
53263;SDS011;39153;52.680;6.172;2023-06-22T02:45:30;33.75;;;29.35;;
53263;SDS011;39153;52.680;6.172;2023-06-22T02:47:56;34.22;;;30.55;;
53263;SDS011;39153;52.680;6.172;2023-06-22T02:50:22;36.95;;;32.10;;
53263;SDS011;39153;52.680;6.172;2023-06-22T02:52:48;38.13;;;31.95;;
53263;SDS011;39153;52.680;6.172;2023-06-22T02:55:14;36.65;;;31.00;;
53263;SDS011;39153;52.680;6.172;2023-06-22T02:57:39;38.05;;;33.92;;
53263;SDS011;39153;52.680;6.172;2023-06-22T03:00:09;36.92;;;32.45;;
53263;SDS011;39153;52.680;6.172;2023-06-22T03:02:42;34.30;;;30.43;;
53263;SDS011;39153;52.680;6.172;2023-06-22T03:05:11;36.25;;;32.45;;
53263;SDS011;39153;52.680;6.172;2023-06-22T03:07:39;36.35;;;31.50;;
53263;SDS011;39153;52.680;6.172;2023-06-22T03:10:07;37.45;;;32.45;;
53263;SDS011;39153;52.680;6.172;2023-06-22T03:12:34;38.28;;;32.72;;
53263;SDS011;39153;52.680;6.172;2023-06-22T03:15:00;35.40;;;31.15;;
53263;SDS011;39153;52.680;6.172;2023-06-22T03:17:26;37.45;;;30.92;;
53263;SDS011;39153;52.680;6.172;2023-06-22T03:19:51;36.85;;;30.25;;
53263;SDS011;39153;52.680;6.172;2023-06-22T03:22:17;34.53;;;30.27;;
53263;SDS011;39153;52.680;6.172;2023-06-22T03:24:43;38.15;;;30.38;;
53263;SDS011;39153;52.680;6.172;2023-06-22T03:27:08;35.10;;;29.88;;
53263;SDS011;39153;52.680;6.172;2023-06-22T03:29:34;33.15;;;29.65;;
53263;SDS011;39153;52.680;6.172;2023-06-22T03:32:00;35.38;;;30.35;;
53263;SDS011;39153;52.680;6.172;2023-06-22T03:34:25;35.38;;;29.80;;
53263;SDS011;39153;52.680;6.172;2023-06-22T03:36:51;36.55;;;29.42;;
53263;SDS011;39153;52.680;6.172;2023-06-22T03:39:17;34.90;;;30.05;;
53263;SDS011;39153;52.680;6.172;2023-06-22T03:41:43;31.83;;;28.38;;
53263;SDS011;39153;52.680;6.172;2023-06-22T03:44:08;31.83;;;27.60;;
53263;SDS011;39153;52.680;6.172;2023-06-22T03:46:37;32.83;;;27.70;;
53263;SDS011;39153;52.680;6.172;2023-06-22T03:49:03;31.20;;;27.83;;
53263;SDS011;39153;52.680;6.172;2023-06-22T03:51:30;33.75;;;28.67;;
53263;SDS011;39153;52.680;6.172;2023-06-22T03:53:56;31.50;;;28.10;;
53263;SDS011;39153;52.680;6.172;2023-06-22T03:56:22;31.63;;;28.05;;
53263;SDS011;39153;52.680;6.172;2023-06-22T03:58:48;30.52;;;27.23;;
53263;SDS011;39153;52.680;6.172;2023-06-22T04:01:13;30.38;;;27.17;;
53263;SDS011;39153;52.680;6.172;2023-06-22T04:03:40;30.58;;;27.20;;
53263;SDS011;39153;52.680;6.172;2023-06-22T04:06:06;33.40;;;29.45;;
53263;SDS011;39153;52.680;6.172;2023-06-22T04:08:32;33.45;;;28.85;;
53263;SDS011;39153;52.680;6.172;2023-06-22T04:10:57;34.67;;;29.83;;
53263;SDS011;39153;52.680;6.172;2023-06-22T04:13:23;34.67;;;30.13;;
53263;SDS011;39153;52.680;6.172;2023-06-22T04:15:49;35.90;;;30.70;;
53263;SDS011;39153;52.680;6.172;2023-06-22T04:18:14;35.17;;;28.92;;
53263;SDS011;39153;52.680;6.172;2023-06-22T04:20:40;33.28;;;29.67;;
53263;SDS011;39153;52.680;6.172;2023-06-22T04:23:06;31.15;;;27.83;;
53263;SDS011;39153;52.680;6.172;2023-06-22T04:25:31;35.08;;;30.73;;
53263;SDS011;39153;52.680;6.172;2023-06-22T04:27:57;33.45;;;29.40;;
53263;SDS011;39153;52.680;6.172;2023-06-22T04:30:23;34.05;;;30.20;;
53263;SDS011;39153;52.680;6.172;2023-06-22T04:32:48;38.00;;;31.73;;
53263;SDS011;39153;52.680;6.172;2023-06-22T04:35:21;39.95;;;32.33;;
53263;SDS011;39153;52.680;6.172;2023-06-22T04:37:47;36.95;;;32.90;;
53263;SDS011;39153;52.680;6.172;2023-06-22T04:40:14;36.85;;;32.25;;
53263;SDS011;39153;52.680;6.172;2023-06-22T04:42:40;36.80;;;32.50;;
53263;SDS011;39153;52.680;6.172;2023-06-22T04:45:17;43.80;;;34.83;;
53263;SDS011;39153;52.680;6.172;2023-06-22T04:47:43;38.28;;;33.45;;
53263;SDS011;39153;52.680;6.172;2023-06-22T04:50:10;43.25;;;36.45;;
53263;SDS011;39153;52.680;6.172;2023-06-22T04:52:37;40.67;;;35.65;;
53263;SDS011;39153;52.680;6.172;2023-06-22T04:55:02;41.53;;;36.95;;
53263;SDS011;39153;52.680;6.172;2023-06-22T04:57:28;42.35;;;37.70;;
53263;SDS011;39153;52.680;6.172;2023-06-22T05:00:00;45.15;;;38.67;;
53263;SDS011;39153;52.680;6.172;2023-06-22T05:02:40;42.55;;;37.95;;
53263;SDS011;39153;52.680;6.172;2023-06-22T05:05:06;42.45;;;37.75;;
53263;SDS011;39153;52.680;6.172;2023-06-22T05:07:35;44.85;;;38.13;;
53263;SDS011;39153;52.680;6.172;2023-06-22T05:10:02;46.25;;;37.45;;
53263;SDS011;39153;52.680;6.172;2023-06-22T05:12:29;46.67;;;36.92;;
53263;SDS011;39153;52.680;6.172;2023-06-22T05:14:55;45.70;;;37.30;;
53263;SDS011;39153;52.680;6.172;2023-06-22T05:17:21;47.13;;;38.90;;
53263;SDS011;39153;52.680;6.172;2023-06-22T05:19:47;42.17;;;36.03;;
53263;SDS011;39153;52.680;6.172;2023-06-22T05:22:14;41.33;;;36.75;;
53263;SDS011;39153;52.680;6.172;2023-06-22T05:24:40;40.70;;;34.90;;
53263;SDS011;39153;52.680;6.172;2023-06-22T05:27:06;38.55;;;33.63;;
53263;SDS011;39153;52.680;6.172;2023-06-22T05:29:32;37.78;;;32.30;;
53263;SDS011;39153;52.680;6.172;2023-06-22T05:31:57;36.45;;;31.48;;
53263;SDS011;39153;52.680;6.172;2023-06-22T05:34:23;35.42;;;31.10;;
53263;SDS011;39153;52.680;6.172;2023-06-22T05:36:49;34.88;;;31.02;;
53263;SDS011;39153;52.680;6.172;2023-06-22T05:39:15;37.30;;;31.15;;
53263;SDS011;39153;52.680;6.172;2023-06-22T05:41:41;37.45;;;30.92;;
53263;SDS011;39153;52.680;6.172;2023-06-22T05:44:08;36.13;;;31.70;;
53263;SDS011;39153;52.680;6.172;2023-06-22T05:46:34;35.65;;;30.13;;
53263;SDS011;39153;52.680;6.172;2023-06-22T05:48:59;34.55;;;30.85;;
53263;SDS011;39153;52.680;6.172;2023-06-22T05:51:25;34.67;;;30.85;;
53263;SDS011;39153;52.680;6.172;2023-06-22T05:53:51;34.05;;;30.35;;
53263;SDS011;39153;52.680;6.172;2023-06-22T05:56:16;33.63;;;29.98;;
53263;SDS011;39153;52.680;6.172;2023-06-22T05:58:42;32.78;;;28.83;;
53263;SDS011;39153;52.680;6.172;2023-06-22T06:01:08;33.00;;;28.20;;
53263;SDS011;39153;52.680;6.172;2023-06-22T06:03:33;31.23;;;27.88;;
53263;SDS011;39153;52.680;6.172;2023-06-22T06:06:06;31.02;;;25.67;;
53263;SDS011;39153;52.680;6.172;2023-06-22T06:08:32;28.92;;;25.00;;
53263;SDS011;39153;52.680;6.172;2023-06-22T06:10:58;28.92;;;24.98;;
53263;SDS011;39153;52.680;6.172;2023-06-22T06:13:23;30.90;;;25.88;;
53263;SDS011;39153;52.680;6.172;2023-06-22T06:15:49;28.38;;;24.05;;
53263;SDS011;39153;52.680;6.172;2023-06-22T06:18:20;26.48;;;23.55;;
53263;SDS011;39153;52.680;6.172;2023-06-22T06:20:46;26.00;;;23.17;;
53263;SDS011;39153;52.680;6.172;2023-06-22T06:23:11;25.65;;;22.85;;
53263;SDS011;39153;52.680;6.172;2023-06-22T06:25:37;27.42;;;23.13;;
53263;SDS011;39153;52.680;6.172;2023-06-22T06:28:03;25.50;;;22.45;;
53263;SDS011;39153;52.680;6.172;2023-06-22T06:30:29;25.77;;;21.95;;
53263;SDS011;39153;52.680;6.172;2023-06-22T06:32:54;26.15;;;21.92;;
53263;SDS011;39153;52.680;6.172;2023-06-22T06:35:20;26.27;;;21.08;;
53263;SDS011;39153;52.680;6.172;2023-06-22T06:37:47;25.10;;;20.02;;
53263;SDS011;39153;52.680;6.172;2023-06-22T06:40:14;22.00;;;19.40;;
53263;SDS011;39153;52.680;6.172;2023-06-22T06:42:48;23.65;;;20.52;;
53263;SDS011;39153;52.680;6.172;2023-06-22T06:45:21;24.13;;;20.65;;
53263;SDS011;39153;52.680;6.172;2023-06-22T06:47:48;24.48;;;19.75;;
53263;SDS011;39153;52.680;6.172;2023-06-22T06:50:14;25.33;;;20.17;;
53263;SDS011;39153;52.680;6.172;2023-06-22T06:52:40;23.38;;;20.50;;
53263;SDS011;39153;52.680;6.172;2023-06-22T06:55:07;22.70;;;20.17;;
53263;SDS011;39153;52.680;6.172;2023-06-22T06:57:37;24.85;;;19.80;;
53263;SDS011;39153;52.680;6.172;2023-06-22T07:00:06;21.83;;;19.30;;
53263;SDS011;39153;52.680;6.172;2023-06-22T07:02:38;21.45;;;18.90;;
53263;SDS011;39153;52.680;6.172;2023-06-22T07:05:05;21.88;;;18.73;;
53263;SDS011;39153;52.680;6.172;2023-06-22T07:07:31;23.13;;;19.70;;
53263;SDS011;39153;52.680;6.172;2023-06-22T07:09:57;22.70;;;17.75;;
53263;SDS011;39153;52.680;6.172;2023-06-22T07:12:23;19.35;;;17.17;;
53263;SDS011;39153;52.680;6.172;2023-06-22T07:14:49;20.90;;;17.55;;
53263;SDS011;39153;52.680;6.172;2023-06-22T07:17:16;20.00;;;15.77;;
53263;SDS011;39153;52.680;6.172;2023-06-22T07:19:41;17.88;;;15.57;;
53263;SDS011;39153;52.680;6.172;2023-06-22T07:22:07;18.83;;;14.98;;
53263;SDS011;39153;52.680;6.172;2023-06-22T07:24:33;20.42;;;16.80;;
53263;SDS011;39153;52.680;6.172;2023-06-22T07:26:58;19.35;;;16.13;;
53263;SDS011;39153;52.680;6.172;2023-06-22T07:29:24;20.05;;;16.10;;
53263;SDS011;39153;52.680;6.172;2023-06-22T07:31:51;17.98;;;15.38;;
53263;SDS011;39153;52.680;6.172;2023-06-22T07:34:17;19.00;;;15.75;;
53263;SDS011;39153;52.680;6.172;2023-06-22T07:36:44;18.55;;;15.55;;
53263;SDS011;39153;52.680;6.172;2023-06-22T07:39:11;20.23;;;16.13;;
53263;SDS011;39153;52.680;6.172;2023-06-22T07:41:38;18.15;;;15.02;;
53263;SDS011;39153;52.680;6.172;2023-06-22T07:44:05;16.98;;;14.80;;
53263;SDS011;39153;52.680;6.172;2023-06-22T07:46:31;18.60;;;14.70;;
53263;SDS011;39153;52.680;6.172;2023-06-22T07:48:57;16.75;;;13.27;;
53263;SDS011;39153;52.680;6.172;2023-06-22T07:51:24;19.60;;;16.13;;
53263;SDS011;39153;52.680;6.172;2023-06-22T07:53:50;20.30;;;14.77;;
53263;SDS011;39153;52.680;6.172;2023-06-22T07:56:16;18.73;;;15.07;;
53263;SDS011;39153;52.680;6.172;2023-06-22T07:58:45;17.40;;;14.38;;
53263;SDS011;39153;52.680;6.172;2023-06-22T08:01:12;18.60;;;14.70;;
53263;SDS011;39153;52.680;6.172;2023-06-22T08:03:39;18.08;;;14.05;;
53263;SDS011;39153;52.680;6.172;2023-06-22T08:06:05;17.13;;;13.45;;
53263;SDS011;39153;52.680;6.172;2023-06-22T08:08:31;19.73;;;15.15;;
53263;SDS011;39153;52.680;6.172;2023-06-22T08:10:56;19.77;;;14.80;;
53263;SDS011;39153;52.680;6.172;2023-06-22T08:13:22;18.33;;;15.02;;
53263;SDS011;39153;52.680;6.172;2023-06-22T08:15:48;16.48;;;14.35;;
53263;SDS011;39153;52.680;6.172;2023-06-22T08:18:14;17.23;;;12.18;;
53263;SDS011;39153;52.680;6.172;2023-06-22T08:20:40;17.73;;;12.95;;
53263;SDS011;39153;52.680;6.172;2023-06-22T08:23:06;18.27;;;14.23;;
53263;SDS011;39153;52.680;6.172;2023-06-22T08:25:32;15.43;;;11.60;;
53263;SDS011;39153;52.680;6.172;2023-06-22T08:27:59;13.70;;;11.85;;
53263;SDS011;39153;52.680;6.172;2023-06-22T08:30:26;16.58;;;12.13;;
53263;SDS011;39153;52.680;6.172;2023-06-22T08:32:52;14.82;;;11.45;;
53263;SDS011;39153;52.680;6.172;2023-06-22T08:35:18;13.82;;;11.13;;
53263;SDS011;39153;52.680;6.172;2023-06-22T08:37:45;14.52;;;11.40;;
53263;SDS011;39153;52.680;6.172;2023-06-22T08:40:19;14.98;;;10.73;;
53263;SDS011;39153;52.680;6.172;2023-06-22T08:42:45;17.52;;;11.32;;
53263;SDS011;39153;52.680;6.172;2023-06-22T08:45:12;18.95;;;10.93;;
53263;SDS011;39153;52.680;6.172;2023-06-22T08:47:38;13.27;;;9.70;;
53263;SDS011;39153;52.680;6.172;2023-06-22T08:50:06;13.82;;;9.60;;
53263;SDS011;39153;52.680;6.172;2023-06-22T08:52:33;14.73;;;9.43;;
53263;SDS011;39153;52.680;6.172;2023-06-22T08:54:59;12.10;;;9.30;;
53263;SDS011;39153;52.680;6.172;2023-06-22T08:57:25;11.88;;;9.20;;
53263;SDS011;39153;52.680;6.172;2023-06-22T08:59:52;14.48;;;10.00;;
53263;SDS011;39153;52.680;6.172;2023-06-22T09:02:18;14.27;;;9.75;;
53263;SDS011;39153;52.680;6.172;2023-06-22T09:04:45;13.10;;;9.50;;
53263;SDS011;39153;52.680;6.172;2023-06-22T09:07:11;12.48;;;9.48;;
53263;SDS011;39153;52.680;6.172;2023-06-22T09:09:37;11.25;;;9.18;;
53263;SDS011;39153;52.680;6.172;2023-06-22T09:12:03;14.68;;;9.48;;
53263;SDS011;39153;52.680;6.172;2023-06-22T09:14:29;12.07;;;8.00;;
53263;SDS011;39153;52.680;6.172;2023-06-22T09:16:54;14.43;;;9.40;;
53263;SDS011;39153;52.680;6.172;2023-06-22T09:19:20;12.63;;;8.80;;
53263;SDS011;39153;52.680;6.172;2023-06-22T09:21:46;11.85;;;8.30;;
53263;SDS011;39153;52.680;6.172;2023-06-22T09:24:11;11.27;;;8.55;;
53263;SDS011;39153;52.680;6.172;2023-06-22T09:26:37;11.48;;;8.73;;
53263;SDS011;39153;52.680;6.172;2023-06-22T09:29:04;11.38;;;7.38;;
53263;SDS011;39153;52.680;6.172;2023-06-22T09:31:31;14.02;;;8.77;;
53263;SDS011;39153;52.680;6.172;2023-06-22T09:33:56;10.07;;;8.35;;
53263;SDS011;39153;52.680;6.172;2023-06-22T09:36:22;11.65;;;8.85;;
53263;SDS011;39153;52.680;6.172;2023-06-22T09:38:48;10.32;;;7.35;;
53263;SDS011;39153;52.680;6.172;2023-06-22T09:41:20;9.25;;;7.05;;
53263;SDS011;39153;52.680;6.172;2023-06-22T09:43:46;10.18;;;7.70;;
53263;SDS011;39153;52.680;6.172;2023-06-22T09:46:14;11.45;;;7.00;;
53263;SDS011;39153;52.680;6.172;2023-06-22T09:48:42;10.82;;;7.55;;
53263;SDS011;39153;52.680;6.172;2023-06-22T09:51:08;14.05;;;7.70;;
53263;SDS011;39153;52.680;6.172;2023-06-22T09:53:34;8.48;;;6.20;;
53263;SDS011;39153;52.680;6.172;2023-06-22T09:56:00;9.20;;;6.60;;
53263;SDS011;39153;52.680;6.172;2023-06-22T09:58:27;10.00;;;7.45;;
53263;SDS011;39153;52.680;6.172;2023-06-22T10:00:52;10.50;;;6.68;;
53263;SDS011;39153;52.680;6.172;2023-06-22T10:03:19;10.27;;;7.38;;
53263;SDS011;39153;52.680;6.172;2023-06-22T10:05:45;9.10;;;6.57;;
53263;SDS011;39153;52.680;6.172;2023-06-22T10:08:11;9.07;;;6.20;;
53263;SDS011;39153;52.680;6.172;2023-06-22T10:10:37;12.00;;;6.80;;
53263;SDS011;39153;52.680;6.172;2023-06-22T10:13:07;11.00;;;6.65;;
53263;SDS011;39153;52.680;6.172;2023-06-22T10:15:35;9.25;;;6.47;;
53263;SDS011;39153;52.680;6.172;2023-06-22T10:18:01;9.48;;;5.65;;
53263;SDS011;39153;52.680;6.172;2023-06-22T10:20:26;9.63;;;5.85;;
53263;SDS011;39153;52.680;6.172;2023-06-22T10:22:53;9.27;;;6.10;;
53263;SDS011;39153;52.680;6.172;2023-06-22T10:25:19;8.50;;;5.55;;
53263;SDS011;39153;52.680;6.172;2023-06-22T10:27:44;7.63;;;4.85;;
53263;SDS011;39153;52.680;6.172;2023-06-22T10:30:11;9.35;;;5.35;;
53263;SDS011;39153;52.680;6.172;2023-06-22T10:32:38;7.95;;;4.80;;
53263;SDS011;39153;52.680;6.172;2023-06-22T10:35:04;8.77;;;5.22;;
53263;SDS011;39153;52.680;6.172;2023-06-22T10:37:31;8.13;;;5.43;;
53263;SDS011;39153;52.680;6.172;2023-06-22T10:39:57;7.78;;;4.80;;
53263;SDS011;39153;52.680;6.172;2023-06-22T10:42:23;9.52;;;5.68;;
53263;SDS011;39153;52.680;6.172;2023-06-22T10:44:48;8.63;;;5.03;;
53263;SDS011;39153;52.680;6.172;2023-06-22T10:47:14;7.18;;;4.80;;
53263;SDS011;39153;52.680;6.172;2023-06-22T10:49:40;6.80;;;4.93;;
53263;SDS011;39153;52.680;6.172;2023-06-22T10:52:06;7.68;;;4.88;;
53263;SDS011;39153;52.680;6.172;2023-06-22T10:54:33;6.03;;;4.22;;
53263;SDS011;39153;52.680;6.172;2023-06-22T10:56:59;7.95;;;4.28;;
53263;SDS011;39153;52.680;6.172;2023-06-22T10:59:25;7.13;;;4.85;;
53263;SDS011;39153;52.680;6.172;2023-06-22T11:01:52;7.53;;;4.40;;
53263;SDS011;39153;52.680;6.172;2023-06-22T11:04:18;6.80;;;4.03;;
53263;SDS011;39153;52.680;6.172;2023-06-22T11:06:44;8.10;;;4.10;;
53263;SDS011;39153;52.680;6.172;2023-06-22T11:09:09;6.50;;;3.75;;
53263;SDS011;39153;52.680;6.172;2023-06-22T11:11:35;5.72;;;3.75;;
53263;SDS011;39153;52.680;6.172;2023-06-22T11:14:01;7.78;;;4.90;;
53263;SDS011;39153;52.680;6.172;2023-06-22T11:16:27;6.75;;;4.50;;
53263;SDS011;39153;52.680;6.172;2023-06-22T11:18:52;7.95;;;4.22;;
53263;SDS011;39153;52.680;6.172;2023-06-22T11:21:18;7.15;;;4.25;;
53263;SDS011;39153;52.680;6.172;2023-06-22T11:23:43;7.05;;;4.90;;
53263;SDS011;39153;52.680;6.172;2023-06-22T11:26:10;10.05;;;5.13;;
53263;SDS011;39153;52.680;6.172;2023-06-22T11:28:35;7.47;;;4.63;;
53263;SDS011;39153;52.680;6.172;2023-06-22T11:31:01;7.15;;;4.45;;
53263;SDS011;39153;52.680;6.172;2023-06-22T11:33:27;7.03;;;4.82;;
53263;SDS011;39153;52.680;6.172;2023-06-22T11:35:52;8.25;;;5.15;;
53263;SDS011;39153;52.680;6.172;2023-06-22T11:38:18;7.18;;;4.75;;
53263;SDS011;39153;52.680;6.172;2023-06-22T11:40:44;10.05;;;5.30;;
53263;SDS011;39153;52.680;6.172;2023-06-22T11:43:09;7.50;;;4.50;;
53263;SDS011;39153;52.680;6.172;2023-06-22T11:45:35;8.38;;;4.45;;
53263;SDS011;39153;52.680;6.172;2023-06-22T11:48:01;6.70;;;4.90;;
53263;SDS011;39153;52.680;6.172;2023-06-22T11:50:27;8.93;;;4.97;;
53263;SDS011;39153;52.680;6.172;2023-06-22T11:52:55;9.13;;;5.93;;
53263;SDS011;39153;52.680;6.172;2023-06-22T11:55:20;6.97;;;4.65;;
53263;SDS011;39153;52.680;6.172;2023-06-22T11:57:53;8.30;;;4.63;;
53263;SDS011;39153;52.680;6.172;2023-06-22T12:00:21;6.30;;;3.90;;
53263;SDS011;39153;52.680;6.172;2023-06-22T12:02:48;7.03;;;4.25;;
53263;SDS011;39153;52.680;6.172;2023-06-22T12:05:20;7.47;;;4.28;;
53263;SDS011;39153;52.680;6.172;2023-06-22T12:07:47;7.22;;;3.90;;
53263;SDS011;39153;52.680;6.172;2023-06-22T12:10:13;7.30;;;4.70;;
53263;SDS011;39153;52.680;6.172;2023-06-22T12:12:39;7.53;;;3.88;;
53263;SDS011;39153;52.680;6.172;2023-06-22T12:15:05;6.78;;;4.78;;
53263;SDS011;39153;52.680;6.172;2023-06-22T12:17:31;8.90;;;5.20;;
53263;SDS011;39153;52.680;6.172;2023-06-22T12:19:58;8.10;;;5.15;;
53263;SDS011;39153;52.680;6.172;2023-06-22T12:22:23;9.20;;;5.18;;
53263;SDS011;39153;52.680;6.172;2023-06-22T12:24:49;7.30;;;4.68;;
53263;SDS011;39153;52.680;6.172;2023-06-22T12:27:15;7.30;;;5.25;;
53263;SDS011;39153;52.680;6.172;2023-06-22T12:29:43;10.20;;;5.20;;
53263;SDS011;39153;52.680;6.172;2023-06-22T12:32:12;6.00;;;4.53;;
53263;SDS011;39153;52.680;6.172;2023-06-22T12:34:39;8.85;;;5.68;;
53263;SDS011;39153;52.680;6.172;2023-06-22T12:37:05;8.20;;;5.43;;
53263;SDS011;39153;52.680;6.172;2023-06-22T12:39:31;8.30;;;5.40;;
53263;SDS011;39153;52.680;6.172;2023-06-22T12:41:57;10.38;;;5.72;;
53263;SDS011;39153;52.680;6.172;2023-06-22T12:44:23;9.38;;;5.28;;
53263;SDS011;39153;52.680;6.172;2023-06-22T12:46:49;8.07;;;5.53;;
53263;SDS011;39153;52.680;6.172;2023-06-22T12:49:15;8.30;;;4.90;;
53263;SDS011;39153;52.680;6.172;2023-06-22T12:51:42;8.43;;;5.20;;
53263;SDS011;39153;52.680;6.172;2023-06-22T12:54:08;7.75;;;4.75;;
53263;SDS011;39153;52.680;6.172;2023-06-22T12:56:34;7.63;;;5.57;;
53263;SDS011;39153;52.680;6.172;2023-06-22T12:59:00;8.50;;;5.30;;
53263;SDS011;39153;52.680;6.172;2023-06-22T13:01:28;7.90;;;4.65;;
53263;SDS011;39153;52.680;6.172;2023-06-22T13:03:55;6.50;;;4.53;;
53263;SDS011;39153;52.680;6.172;2023-06-22T13:06:21;7.32;;;4.28;;
53263;SDS011;39153;52.680;6.172;2023-06-22T13:08:47;6.85;;;4.60;;
53263;SDS011;39153;52.680;6.172;2023-06-22T13:11:13;8.20;;;5.18;;
53263;SDS011;39153;52.680;6.172;2023-06-22T13:13:38;8.10;;;4.82;;
53263;SDS011;39153;52.680;6.172;2023-06-22T13:16:05;6.78;;;5.00;;
53263;SDS011;39153;52.680;6.172;2023-06-22T13:18:30;9.18;;;5.57;;
53263;SDS011;39153;52.680;6.172;2023-06-22T13:20:56;8.73;;;5.47;;
53263;SDS011;39153;52.680;6.172;2023-06-22T13:23:23;9.73;;;5.10;;
53263;SDS011;39153;52.680;6.172;2023-06-22T13:25:49;7.43;;;5.18;;
53263;SDS011;39153;52.680;6.172;2023-06-22T13:28:14;10.43;;;5.40;;
53263;SDS011;39153;52.680;6.172;2023-06-22T13:30:41;8.00;;;5.25;;
53263;SDS011;39153;52.680;6.172;2023-06-22T13:33:08;8.35;;;5.57;;
53263;SDS011;39153;52.680;6.172;2023-06-22T13:35:34;10.13;;;6.00;;
53263;SDS011;39153;52.680;6.172;2023-06-22T13:38:03;9.38;;;6.25;;
53263;SDS011;39153;52.680;6.172;2023-06-22T13:40:29;9.50;;;6.03;;
53263;SDS011;39153;52.680;6.172;2023-06-22T13:42:55;12.07;;;6.63;;
53263;SDS011;39153;52.680;6.172;2023-06-22T13:45:21;9.70;;;6.60;;
53263;SDS011;39153;52.680;6.172;2023-06-22T13:47:47;9.93;;;6.22;;
53263;SDS011;39153;52.680;6.172;2023-06-22T13:50:12;10.80;;;5.90;;
53263;SDS011;39153;52.680;6.172;2023-06-22T13:52:38;9.25;;;6.47;;
53263;SDS011;39153;52.680;6.172;2023-06-22T13:55:05;9.57;;;6.43;;
53263;SDS011;39153;52.680;6.172;2023-06-22T13:57:32;9.00;;;6.75;;
53263;SDS011;39153;52.680;6.172;2023-06-22T13:59:59;9.82;;;6.25;;
53263;SDS011;39153;52.680;6.172;2023-06-22T14:02:27;10.98;;;6.55;;
53263;SDS011;39153;52.680;6.172;2023-06-22T14:04:53;10.82;;;6.72;;
53263;SDS011;39153;52.680;6.172;2023-06-22T14:07:19;10.77;;;7.25;;
53263;SDS011;39153;52.680;6.172;2023-06-22T14:09:46;9.40;;;7.43;;
53263;SDS011;39153;52.680;6.172;2023-06-22T14:12:12;9.32;;;7.22;;
53263;SDS011;39153;52.680;6.172;2023-06-22T14:14:38;11.35;;;7.32;;
53263;SDS011;39153;52.680;6.172;2023-06-22T14:17:04;9.48;;;7.50;;
53263;SDS011;39153;52.680;6.172;2023-06-22T14:19:30;9.13;;;7.15;;
53263;SDS011;39153;52.680;6.172;2023-06-22T14:21:56;10.32;;;7.55;;
53263;SDS011;39153;52.680;6.172;2023-06-22T14:24:22;11.65;;;7.95;;
53263;SDS011;39153;52.680;6.172;2023-06-22T14:26:48;11.25;;;7.85;;
53263;SDS011;39153;52.680;6.172;2023-06-22T14:29:14;10.68;;;7.65;;
53263;SDS011;39153;52.680;6.172;2023-06-22T14:31:39;11.18;;;8.45;;
53263;SDS011;39153;52.680;6.172;2023-06-22T14:34:05;11.65;;;7.50;;